Time;durP1;ratioP1;P1;durP2;ratioP2;P2;SDS_P1;SDS_P2;PMS_P1;PMS_P2;Temp;Humidity;BMP_temperature;BMP_pressure;BME280_temperature;BME280_humidity;BME280_pressure;Samples;Min_cycle;Max_cycle;Signal;HPM_P1;HPM_P2
2023/04/16 00:00:55;;;;;;;9.60;7.28;;;;;;;13.60;52.12;94522.00;5007428;28;20300;-62
2023/04/16 00:03:22;;;;;;;23.55;13.98;;;;;;;13.52;52.36;94524.13;5007539;28;20350;-60
2023/04/16 00:05:49;;;;;;;7.75;5.90;;;;;;;13.53;51.96;94525.78;5006955;28;20298;-64
2023/04/16 00:08:17;;;;;;;5.32;4.78;;;;;;;13.49;50.69;94516.63;5007396;28;20302;-63
2023/04/16 00:10:44;;;;;;;6.50;5.25;;;;;;;13.40;48.95;94524.78;5008292;28;20681;-62
2023/04/16 00:13:10;;;;;;;7.88;5.05;;;;;;;13.29;49.32;94527.09;5007326;28;20318;-60
2023/04/16 00:15:37;;;;;;;7.57;5.25;;;;;;;13.18;49.07;94516.59;5007486;28;20703;-60
2023/04/16 00:18:04;;;;;;;4.65;4.25;;;;;;;13.00;49.23;94526.00;5006943;28;20255;-58
2023/04/16 00:20:31;;;;;;;7.35;4.85;;;;;;;13.01;50.19;94524.28;5007342;28;20207;-61
2023/04/16 00:22:58;;;;;;;11.82;5.13;;;;;;;12.94;50.38;94519.50;5007257;28;20783;-62
2023/04/16 00:25:26;;;;;;;12.77;5.40;;;;;;;12.81;49.71;94526.13;5007580;28;20239;-63
2023/04/16 00:27:53;;;;;;;8.38;5.00;;;;;;;12.65;50.27;94517.59;5007659;28;20294;-58
2023/04/16 00:30:19;;;;;;;7.82;4.35;;;;;;;12.62;50.46;94527.94;5006331;28;20285;-61
2023/04/16 00:32:46;;;;;;;6.35;4.03;;;;;;;12.55;50.20;94524.91;5008035;28;20291;-61
2023/04/16 00:35:13;;;;;;;7.45;4.07;;;;;;;12.61;50.64;94526.31;5006093;28;20797;-63
2023/04/16 00:37:39;;;;;;;9.15;4.53;;;;;;;12.58;50.55;94521.38;5006277;28;20314;-63
2023/04/16 00:40:07;;;;;;;5.93;3.25;;;;;;;12.46;50.13;94501.56;5006668;28;20269;-62
2023/04/16 00:42:36;;;;;;;8.13;4.00;;;;;;;12.50;49.66;94528.56;5007362;28;20334;-58
2023/04/16 00:45:04;;;;;;;5.53;3.15;;;;;;;12.43;49.95;94520.38;5006396;28;20696;-59
2023/04/16 00:47:31;;;;;;;5.40;3.78;;;;;;;12.47;50.38;94518.50;5007758;28;20721;-61
2023/04/16 00:49:58;;;;;;;8.65;2.83;;;;;;;12.44;50.58;94518.66;5005765;28;20316;-62
2023/04/16 00:52:25;;;;;;;6.47;3.30;;;;;;;12.38;50.76;94518.97;5005743;28;20311;-62
2023/04/16 00:54:53;;;;;;;7.25;3.75;;;;;;;12.34;50.34;94517.50;5007150;28;20207;-60
2023/04/16 00:57:22;;;;;;;5.80;3.80;;;;;;;12.35;50.04;94521.69;5010318;28;20322;-63
2023/04/16 00:59:51;;;;;;;6.45;3.80;;;;;;;12.13;50.90;94521.88;5009730;28;20789;-61
2023/04/16 01:02:18;;;;;;;7.60;3.08;;;;;;;12.00;51.09;94524.19;5011418;28;20341;-63
2023/04/16 01:04:44;;;;;;;4.97;3.20;;;;;;;11.90;51.22;94522.97;5010601;28;20286;-62
2023/04/16 01:07:11;;;;;;;5.60;3.88;;;;;;;11.99;51.61;94519.19;5011549;28;20199;-59
2023/04/16 01:09:38;;;;;;;5.93;3.70;;;;;;;12.00;51.85;94518.28;5010801;28;20311;-60
2023/04/16 01:12:05;;;;;;;7.93;3.33;;;;;;;11.95;50.97;94505.75;5010339;28;20298;-62
2023/04/16 01:14:35;;;;;;;6.38;3.10;;;;;;;11.98;51.29;94518.34;5010048;28;20875;-61
2023/04/16 01:17:03;;;;;;;6.22;3.35;;;;;;;11.90;51.77;94520.44;5011205;28;20233;-63
2023/04/16 01:19:30;;;;;;;4.18;3.25;;;;;;;11.81;51.64;94513.25;5010416;28;20241;-58
2023/04/16 01:21:59;;;;;;;5.80;2.95;;;;;;;11.85;51.91;94510.47;5010641;28;20295;-59
2023/04/16 01:24:26;;;;;;;9.57;4.05;;;;;;;11.81;51.86;94508.16;5010606;28;20304;-62
2023/04/16 01:26:52;;;;;;;6.03;3.03;;;;;;;11.79;51.97;94512.47;5010094;28;20718;-60
2023/04/16 01:29:19;;;;;;;7.90;3.38;;;;;;;11.75;52.14;94513.50;5009374;28;20742;-64
2023/04/16 01:31:46;;;;;;;3.47;3.15;;;;;;;11.76;51.95;94520.22;5010677;28;20398;-60
2023/04/16 01:34:13;;;;;;;5.18;3.50;;;;;;;11.72;52.67;94513.63;5008093;28;20594;-64
2023/04/16 01:36:39;;;;;;;6.55;3.38;;;;;;;11.74;53.10;94506.75;5010656;28;20325;-63
2023/04/16 01:39:10;;;;;;;5.75;3.65;;;;;;;11.76;53.71;94510.91;5009197;28;20349;-63
2023/04/16 01:41:37;;;;;;;5.35;3.22;;;;;;;11.74;53.94;94506.75;5010206;28;20298;-64
2023/04/16 01:44:04;;;;;;;4.63;3.13;;;;;;;11.78;53.93;94505.75;5009630;28;20298;-60
2023/04/16 01:46:33;;;;;;;7.55;3.83;;;;;;;11.77;54.26;94506.63;5010272;28;20286;-62
2023/04/16 01:49:00;;;;;;;7.65;3.15;;;;;;;11.82;54.07;94495.34;5009566;28;21084;-62
2023/04/16 01:51:27;;;;;;;3.13;2.78;;;;;;;11.93;53.95;94497.38;5008483;28;20235;-60
2023/04/16 01:53:54;;;;;;;4.10;3.13;;;;;;;11.91;54.26;94488.97;5009301;28;20214;-62
2023/04/16 01:56:22;;;;;;;3.60;3.30;;;;;;;11.99;54.42;94486.91;5010113;28;20650;-63
2023/04/16 01:58:49;;;;;;;3.85;3.05;;;;;;;12.02;54.29;94491.84;5009884;28;20211;-60
2023/04/16 02:01:16;;;;;;;5.57;3.50;;;;;;;12.09;54.53;94495.75;5010028;28;20957;-59
2023/04/16 02:03:43;;;;;;;5.95;3.03;;;;;;;12.11;54.13;94499.06;5009306;28;20212;-63
2023/04/16 02:06:10;;;;;;;6.75;3.67;;;;;;;12.16;54.42;94496.25;5010460;28;20297;-62
2023/04/16 02:08:36;;;;;;;7.07;3.42;;;;;;;12.10;53.97;94494.84;5008937;28;20740;-63
2023/04/16 02:11:03;;;;;;;4.80;3.70;;;;;;;12.05;54.21;94485.78;5009305;28;20235;-62
2023/04/16 02:13:31;;;;;;;8.48;3.72;;;;;;;12.13;54.24;94492.13;5009163;28;20303;-59
2023/04/16 02:15:58;;;;;;;4.50;3.63;;;;;;;12.10;54.69;94497.41;5009249;28;20294;-62
2023/04/16 02:18:25;;;;;;;5.38;3.38;;;;;;;12.11;54.50;94486.31;5009208;28;20325;-63
2023/04/16 02:20:51;;;;;;;5.97;3.40;;;;;;;12.12;54.17;94485.41;5009284;28;20357;-63
2023/04/16 02:23:18;;;;;;;6.50;3.35;;;;;;;12.14;54.37;94481.06;5009171;28;20290;-60
2023/04/16 02:25:47;;;;;;;6.10;3.83;;;;;;;12.14;54.49;94477.69;5009766;28;21795;-64
2023/04/16 02:28:15;;;;;;;4.93;3.28;;;;;;;12.15;54.28;94485.25;5009582;28;20311;-62
2023/04/16 02:30:43;;;;;;;5.70;3.90;;;;;;;12.21;54.41;94481.59;5008651;28;20261;-60
2023/04/16 02:33:12;;;;;;;7.95;3.83;;;;;;;12.19;54.67;94481.66;5009001;28;21336;-62
2023/04/16 02:35:39;;;;;;;4.53;4.07;;;;;;;12.20;54.79;94485.84;5009403;28;20239;-63
2023/04/16 02:38:07;;;;;;;7.35;4.70;;;;;;;12.08;54.79;94475.44;5009016;28;20313;-63
2023/04/16 02:40:34;;;;;;;8.07;3.50;;;;;;;12.09;55.08;94475.38;5008534;28;20222;-59
2023/04/16 02:43:01;;;;;;;6.53;4.40;;;;;;;12.12;55.04;94477.78;5008400;28;20293;-59
2023/04/16 02:45:27;;;;;;;5.57;4.25;;;;;;;12.17;55.09;94477.53;5007850;28;20217;-61
2023/04/16 02:47:55;;;;;;;7.75;4.00;;;;;;;12.15;55.06;94472.50;5009040;28;20878;-63
2023/04/16 02:50:22;;;;;;;3.92;3.38;;;;;;;12.09;55.26;94472.00;5007719;28;20762;-63
2023/04/16 02:52:50;;;;;;;11.38;3.47;;;;;;;12.14;55.29;94475.13;5008063;28;20357;-58
2023/04/16 02:55:17;;;;;;;4.75;3.63;;;;;;;12.07;55.51;94478.91;5008011;28;20312;-61
2023/04/16 02:57:44;;;;;;;8.05;4.50;;;;;;;12.04;56.13;94481.59;5009548;28;20318;-63
2023/04/16 03:00:11;;;;;;;7.55;4.03;;;;;;;11.94;56.52;94476.09;5008571;28;20330;-61
2023/04/16 03:02:38;;;;;;;7.80;4.20;;;;;;;11.85;56.64;94474.84;5009254;28;20211;-59
2023/04/16 03:05:07;;;;;;;5.53;4.40;;;;;;;11.85;56.65;94469.75;5007112;28;20231;-60
2023/04/16 03:07:34;;;;;;;7.15;4.13;;;;;;;11.73;57.03;94459.28;5008937;28;20661;-59
2023/04/16 03:10:00;;;;;;;5.32;3.90;;;;;;;11.83;56.72;94475.81;5009622;28;22076;-59
2023/04/16 03:12:27;;;;;;;8.43;3.67;;;;;;;11.85;56.94;94472.28;5008974;28;20295;-60
2023/04/16 03:14:54;;;;;;;7.53;3.92;;;;;;;11.86;56.61;94485.84;5008974;28;20309;-58
2023/04/16 03:17:20;;;;;;;4.57;3.83;;;;;;;11.88;56.56;94484.03;5009165;28;20616;-60
2023/04/16 03:19:49;;;;;;;8.32;3.92;;;;;;;11.86;56.64;94483.31;5007823;28;20266;-60
2023/04/16 03:22:17;;;;;;;4.97;3.40;;;;;;;11.82;56.41;94481.78;5008499;28;20208;-61
2023/04/16 03:24:44;;;;;;;7.97;3.83;;;;;;;11.83;56.04;94491.09;5009174;28;20351;-63
2023/04/16 03:27:11;;;;;;;4.93;4.10;;;;;;;11.81;55.74;94483.50;5008151;28;20294;-62
2023/04/16 03:29:38;;;;;;;6.35;3.15;;;;;;;11.83;55.71;94489.38;5007464;28;20231;-64
2023/04/16 03:32:04;;;;;;;6.25;3.72;;;;;;;11.83;55.27;94496.19;5007309;28;20496;-60
2023/04/16 03:34:31;;;;;;;6.13;3.92;;;;;;;11.84;55.61;94493.56;5006713;28;22463;-63
2023/04/16 03:36:58;;;;;;;7.15;4.60;;;;;;;11.81;55.60;94492.88;5007297;28;20299;-60
2023/04/16 03:39:26;;;;;;;5.55;4.10;;;;;;;11.76;56.12;94494.78;5007406;28;20293;-59
2023/04/16 03:41:52;;;;;;;6.53;3.90;;;;;;;11.67;56.38;94497.75;5006988;28;20239;-65
2023/04/16 03:44:19;;;;;;;5.95;3.88;;;;;;;11.73;56.52;94500.00;5007958;28;20298;-63
2023/04/16 03:46:46;;;;;;;7.68;4.63;;;;;;;11.73;56.06;94497.47;5008667;28;20692;-62
2023/04/16 03:49:12;;;;;;;8.57;5.10;;;;;;;11.79;55.42;94502.31;5008879;28;20191;-58
2023/04/16 03:51:39;;;;;;;8.30;5.75;;;;;;;11.80;55.32;94501.41;5007554;28;21251;-61
2023/04/16 03:54:06;;;;;;;7.90;5.50;;;;;;;11.70;55.64;94500.16;5007426;28;20359;-59
2023/04/16 03:56:34;;;;;;;9.77;5.93;;;;;;;11.78;55.78;94498.94;5008304;28;20897;-62
2023/04/16 03:59:00;;;;;;;9.95;6.10;;;;;;;11.75;56.01;94504.13;5008857;28;20734;-63
2023/04/16 04:01:27;;;;;;;7.93;5.25;;;;;;;11.72;55.98;94503.44;5008601;28;21209;-65
2023/04/16 04:03:54;;;;;;;10.80;5.57;;;;;;;11.67;56.36;94505.38;5007267;28;20297;-63
2023/04/16 04:06:20;;;;;;;8.25;5.72;;;;;;;11.71;56.27;94506.88;5008443;28;20381;-62
2023/04/16 04:08:47;;;;;;;11.60;5.53;;;;;;;11.84;56.47;94502.91;5008876;28;20294;-63
2023/04/16 04:11:14;;;;;;;9.70;5.47;;;;;;;11.97;55.96;94505.69;5007527;28;20657;-59
2023/04/16 04:13:42;;;;;;;9.70;5.55;;;;;;;12.17;55.49;94506.38;5007722;28;20298;-62
2023/04/16 04:16:09;;;;;;;5.43;4.85;;;;;;;12.31;55.23;94507.44;5007944;28;21264;-64
2023/04/16 04:18:35;;;;;;;9.05;5.03;;;;;;;12.32;54.51;94506.53;5008497;28;20247;-63
2023/04/16 04:21:05;;;;;;;10.20;5.82;;;;;;;12.32;54.47;94504.81;5008620;28;20294;-63
2023/04/16 04:23:32;;;;;;;5.47;4.65;;;;;;;12.42;54.21;94510.28;5008552;28;20207;-64
2023/04/16 04:26:02;;;;;;;10.00;4.70;;;;;;;12.43;54.21;94517.00;5007760;28;20763;-61
2023/04/16 04:28:29;;;;;;;17.88;4.45;;;;;;;12.40;54.30;94514.63;5008458;28;20612;-62
2023/04/16 04:30:57;;;;;;;7.63;5.97;;;;;;;12.41;54.12;94523.91;5006998;28;20774;-61
2023/04/16 04:33:23;;;;;;;12.00;6.95;;;;;;;12.36;54.23;94520.78;5008469;28;20307;-62
2023/04/16 04:35:50;;;;;;;15.48;7.32;;;;;;;12.43;54.58;94522.09;5007268;28;20772;-64
2023/04/16 04:38:18;;;;;;;16.45;8.80;;;;;;;12.39;54.27;94526.53;5007639;28;20306;-57
2023/04/16 04:40:45;;;;;;;12.60;8.23;;;;;;;12.33;54.36;94526.03;5007646;28;20208;-62
2023/04/16 04:43:12;;;;;;;10.10;6.65;;;;;;;12.43;54.33;94527.22;5007199;28;20402;-62
2023/04/16 04:45:38;;;;;;;11.07;6.55;;;;;;;12.60;54.28;94527.22;5006618;28;20235;-63
2023/04/16 04:48:07;;;;;;;6.47;5.85;;;;;;;12.42;54.54;94525.56;5008206;28;20293;-63
2023/04/16 04:50:33;;;;;;;5.97;5.38;;;;;;;12.47;54.27;94526.16;5006995;28;20354;-62
2023/04/16 04:53:00;;;;;;;9.48;5.57;;;;;;;12.55;54.16;94534.25;5007572;28;20243;-63
2023/04/16 04:55:26;;;;;;;8.35;4.78;;;;;;;12.44;54.38;94529.69;5007021;28;20294;-63
2023/04/16 04:57:53;;;;;;;6.63;5.30;;;;;;;12.46;54.55;94534.72;5006692;28;20873;-63
2023/04/16 05:00:20;;;;;;;5.85;4.50;;;;;;;12.48;54.17;94530.34;5008005;28;20231;-63
2023/04/16 05:02:47;;;;;;;13.20;4.97;;;;;;;12.46;54.17;94527.06;5008131;28;20288;-63
2023/04/16 05:05:15;;;;;;;8.38;4.43;;;;;;;12.40;54.39;94532.44;5007595;28;20601;-64
2023/04/16 05:07:41;;;;;;;9.55;4.70;;;;;;;12.49;53.77;94527.75;5006976;28;20229;-60
2023/04/16 05:10:09;;;;;;;9.00;5.03;;;;;;;12.62;53.94;94532.25;5007660;28;20239;-64
2023/04/16 05:12:35;;;;;;;7.55;4.45;;;;;;;12.70;53.53;94535.22;5006740;28;20704;-64
2023/04/16 05:15:02;;;;;;;10.18;5.63;;;;;;;12.80;53.01;94537.22;5007191;28;20298;-64
2023/04/16 05:17:29;;;;;;;5.65;4.00;;;;;;;12.93;52.52;94525.50;5007142;28;20259;-62
2023/04/16 05:19:56;;;;;;;6.80;4.88;;;;;;;13.11;52.33;94530.56;5007964;28;20638;-59
2023/04/16 05:22:24;;;;;;;6.70;4.10;;;;;;;13.21;51.83;94535.13;5007032;28;20755;-61
2023/04/16 05:24:50;;;;;;;4.60;3.95;;;;;;;13.27;51.85;94531.44;5007179;28;20361;-64
2023/04/16 05:27:17;;;;;;;5.25;4.18;;;;;;;13.42;51.34;94520.41;5006901;28;20302;-64
2023/04/16 05:29:44;;;;;;;8.73;4.72;;;;;;;13.59;50.46;94528.03;5007701;28;20704;-63
2023/04/16 05:32:10;;;;;;;11.40;3.72;;;;;;;13.78;50.47;94527.84;5007255;28;20303;-60
2023/04/16 05:34:37;;;;;;;4.18;3.55;;;;;;;13.99;49.51;94523.28;5006409;28;20207;-62
2023/04/16 05:37:04;;;;;;;9.48;4.35;;;;;;;14.01;49.33;94529.13;5006863;28;20642;-64
2023/04/16 05:39:32;;;;;;;8.80;5.00;;;;;;;14.19;48.98;94523.00;5007310;28;20405;-61
2023/04/16 05:41:58;;;;;;;8.00;4.47;;;;;;;14.41;48.29;94516.69;5007731;28;20310;-63
2023/04/16 05:44:25;;;;;;;6.13;4.50;;;;;;;14.48;48.20;94523.09;5010542;28;20294;-63
2023/04/16 05:46:52;;;;;;;6.15;4.38;;;;;;;14.59;47.87;94521.59;5008116;28;20750;-63
2023/04/16 05:49:20;;;;;;;8.73;4.28;;;;;;;14.62;47.65;94520.56;5010599;28;20247;-65
2023/04/16 05:51:47;;;;;;;13.00;5.43;;;;;;;14.63;48.03;94532.44;5009342;28;21103;-60
2023/04/16 05:54:13;;;;;;;9.55;3.75;;;;;;;14.63;47.82;94522.22;5010157;28;20953;-63
2023/04/16 05:56:41;;;;;;;6.03;4.28;;;;;;;14.65;48.10;94520.41;5011297;28;20220;-64
2023/04/16 05:59:08;;;;;;;9.35;3.97;;;;;;;14.68;47.44;94524.50;5010035;28;20783;-62
2023/04/16 06:01:35;;;;;;;9.32;4.75;;;;;;;14.72;46.76;94520.88;5010634;28;20283;-63
2023/04/16 06:04:01;;;;;;;7.35;6.40;;;;;;;14.70;46.75;94526.06;5010528;28;20295;-60
2023/04/16 06:06:28;;;;;;;7.25;5.50;;;;;;;14.77;46.38;94518.88;5010896;28;20337;-61
2023/04/16 06:08:55;;;;;;;10.90;6.00;;;;;;;14.80;46.70;94527.19;5009559;28;20242;-59
2023/04/16 06:11:22;;;;;;;6.75;5.47;;;;;;;14.88;46.55;94527.53;5009575;28;20207;-60
2023/04/16 06:13:50;;;;;;;8.15;4.75;;;;;;;15.09;46.43;94525.47;5010692;28;20294;-62
2023/04/16 06:16:16;;;;;;;7.63;4.95;;;;;;;15.41;45.56;94527.81;5010141;28;20208;-60
2023/04/16 06:18:43;;;;;;;9.32;4.97;;;;;;;15.74;45.18;94520.66;5010072;28;20330;-63
2023/04/16 06:21:10;;;;;;;6.68;5.68;;;;;;;16.19;44.04;94519.50;5010165;28;20299;-61
2023/04/16 06:23:36;;;;;;;13.57;9.63;;;;;;;16.70;43.20;94519.63;5010150;28;20358;-60
2023/04/16 06:26:04;;;;;;;11.77;6.65;;;;;;;17.21;41.73;94519.63;5010369;28;20291;-62
2023/04/16 06:28:31;;;;;;;7.18;5.15;;;;;;;17.76;40.33;94515.84;5010243;28;20203;-64
2023/04/16 06:30:59;;;;;;;5.25;4.80;;;;;;;18.16;39.65;94517.22;5010183;28;20668;-65
2023/04/16 06:33:26;;;;;;;7.90;5.00;;;;;;;18.59;39.03;94511.53;5009726;28;20214;-64
2023/04/16 06:35:53;;;;;;;5.43;4.97;;;;;;;18.69;38.52;94502.25;5009939;28;20208;-64
2023/04/16 06:38:20;;;;;;;6.80;4.97;;;;;;;18.60;38.86;94502.91;5010138;28;20330;-64
2023/04/16 06:40:46;;;;;;;12.25;4.50;;;;;;;18.62;38.56;94509.59;5009836;28;20640;-65
2023/04/16 06:43:14;;;;;;;7.40;4.75;;;;;;;18.81;38.59;94511.63;5007516;28;20207;-64
2023/04/16 06:45:41;;;;;;;7.55;5.43;;;;;;;19.65;37.25;94513.78;5008201;28;20239;-62
2023/04/16 06:48:09;;;;;;;10.68;5.05;;;;;;;20.35;35.84;94508.19;5008156;28;20256;-61
2023/04/16 06:50:36;;;;;;;6.07;4.93;;;;;;;21.02;34.62;94507.88;5007297;28;20330;-59
2023/04/16 06:53:03;;;;;;;6.40;4.65;;;;;;;21.56;33.19;94500.78;5007625;28;20218;-60
2023/04/16 06:55:30;;;;;;;13.18;5.45;;;;;;;22.18;32.56;94500.56;5008827;28;20259;-60
2023/04/16 06:57:56;;;;;;;12.73;5.35;;;;;;;23.49;30.98;94504.19;5008003;28;20417;-63
2023/04/16 07:00:23;;;;;;;8.95;5.30;;;;;;;24.96;28.42;94494.34;5009520;28;20318;-63
2023/04/16 07:02:50;;;;;;;6.50;4.65;;;;;;;25.84;27.23;94488.94;5008743;28;20215;-64
2023/04/16 07:05:18;;;;;;;8.20;5.15;;;;;;;25.59;27.40;94495.81;5008166;28;20212;-65
2023/04/16 07:07:45;;;;;;;10.23;5.13;;;;;;;25.11;28.01;94485.97;5009378;28;20243;-60
2023/04/16 07:10:11;;;;;;;6.15;5.60;;;;;;;24.09;29.31;94499.38;5008620;28;20318;-64
2023/04/16 07:12:38;;;;;;;6.30;5.18;;;;;;;22.68;31.13;94490.06;5009182;28;20376;-62
2023/04/16 07:15:07;;;;;;;5.15;4.65;;;;;;;22.08;32.46;94501.47;5009144;28;20236;-64
2023/04/16 07:17:34;;;;;;;8.13;5.03;;;;;;;21.79;33.37;94501.38;5009459;28;20302;-62
2023/04/16 07:20:00;;;;;;;7.20;5.07;;;;;;;22.01;33.53;94501.22;5008546;28;20341;-60
2023/04/16 07:22:28;;;;;;;6.22;4.85;;;;;;;22.43;32.98;94500.97;5008723;28;20993;-64
2023/04/16 07:24:55;;;;;;;10.95;4.57;;;;;;;22.84;32.58;94505.88;5009155;28;20207;-65
2023/04/16 07:27:22;;;;;;;9.85;5.50;;;;;;;23.50;31.54;94505.81;5009380;28;20358;-60
2023/04/16 07:29:49;;;;;;;6.15;5.05;;;;;;;24.29;30.08;94498.31;5009013;28;20239;-61
2023/04/16 07:32:16;;;;;;;13.23;5.38;;;;;;;24.27;29.81;94491.63;5008044;28;20207;-63
2023/04/16 07:34:43;;;;;;;6.97;4.40;;;;;;;24.02;30.15;94498.31;5008114;28;20235;-65
2023/04/16 07:37:10;;;;;;;5.38;4.63;;;;;;;23.78;30.77;94500.66;5009514;28;20235;-67
2023/04/16 07:39:38;;;;;;;8.32;4.85;;;;;;;23.63;31.35;94497.72;5008538;28;20313;-66
2023/04/16 07:42:05;;;;;;;9.43;4.10;;;;;;;23.39;32.29;94500.81;5007305;28;20299;-59
2023/04/16 07:44:32;;;;;;;27.80;18.42;;;;;;;23.47;31.66;94508.69;5008099;28;20239;-63
2023/04/16 07:46:58;;;;;;;16.73;11.05;;;;;;;23.90;31.15;94504.69;5007771;28;20260;-62
2023/04/16 07:49:25;;;;;;;4.18;3.88;;;;;;;24.66;29.76;94498.16;5007924;28;20257;-66
2023/04/16 07:51:52;;;;;;;16.17;10.27;;;;;;;25.20;29.15;94491.09;5007530;28;20231;-64
2023/04/16 07:54:18;;;;;;;12.13;8.77;;;;;;;25.84;28.81;94481.13;5008264;28;20291;-66
2023/04/16 07:56:46;;;;;;;10.52;7.20;;;;;;;26.40;27.70;94486.50;5008639;28;20214;-62
2023/04/16 07:59:13;;;;;;;6.10;4.20;;;;;;;26.47;27.70;94483.25;5007974;28;20323;-64
2023/04/16 08:01:40;;;;;;;8.07;4.72;;;;;;;26.33;27.38;94484.69;5007202;28;20255;-64
2023/04/16 08:04:07;;;;;;;6.40;4.93;;;;;;;25.82;27.57;94490.91;5008326;28;20222;-65
2023/04/16 08:06:33;;;;;;;4.82;4.43;;;;;;;24.07;30.19;94502.13;5007779;28;20318;-65
2023/04/16 08:09:00;;;;;;;6.22;5.55;;;;;;;23.68;31.01;94485.97;5008426;28;20287;-63
2023/04/16 08:11:27;;;;;;;8.10;6.50;;;;;;;24.45;30.41;94502.03;5007184;28;20734;-64
2023/04/16 08:13:55;;;;;;;5.72;4.65;;;;;;;25.67;28.45;94482.88;5008532;28;20239;-64
2023/04/16 08:16:22;;;;;;;8.98;4.00;;;;;;;27.37;26.17;94483.03;5008296;28;20215;-65
2023/04/16 08:18:48;;;;;;;4.47;3.65;;;;;;;28.07;25.35;94484.88;5008769;28;20605;-65
2023/04/16 08:21:15;;;;;;;7.72;4.50;;;;;;;29.36;23.94;94474.41;5007656;28;20295;-65
2023/04/16 08:23:42;;;;;;;5.28;3.75;;;;;;;30.60;22.90;94474.34;5007630;28;20831;-64
2023/04/16 08:26:08;;;;;;;4.38;3.83;;;;;;;32.20;20.84;94469.06;5008391;28;20224;-66
2023/04/16 08:28:35;;;;;;;6.03;3.47;;;;;;;32.82;20.36;94470.66;5006811;28;21070;-64
2023/04/16 08:31:03;;;;;;;4.57;3.95;;;;;;;31.31;22.08;94471.69;5007605;28;20294;-62
2023/04/16 08:33:30;;;;;;;5.13;3.03;;;;;;;29.06;23.80;94476.19;5007840;28;20297;-65
2023/04/16 08:35:57;;;;;;;6.18;3.40;;;;;;;26.42;26.70;94478.53;5008085;28;20291;-64
2023/04/16 08:38:23;;;;;;;8.13;4.07;;;;;;;23.88;30.46;94473.69;5007882;28;20633;-64
2023/04/16 08:40:50;;;;;;;4.38;3.85;;;;;;;22.64;32.65;94475.72;5007710;28;20301;-66
2023/04/16 08:43:19;;;;;;;4.45;3.80;;;;;;;21.71;34.25;94471.84;5007441;28;20285;-65
2023/04/16 08:45:47;;;;;;;5.28;3.20;;;;;;;21.33;34.92;94469.16;5007900;28;20294;-66
2023/04/16 08:48:15;;;;;;;9.07;4.30;;;;;;;21.40;35.04;94454.75;5006926;28;20331;-61
2023/04/16 08:50:44;;;;;;;5.82;3.60;;;;;;;22.49;33.53;94464.19;5007584;28;20693;-65
2023/04/16 08:53:18;;;;;;;6.22;3.33;;;;;;;23.95;31.46;94460.97;5007089;28;20208;-63
2023/04/16 08:55:48;;;;;;;4.38;3.17;;;;;;;25.23;29.34;94453.56;5007820;28;20331;-64
2023/04/16 08:58:19;;;;;;;3.80;3.22;;;;;;;25.56;28.90;94447.50;5007514;28;20211;-65
2023/04/16 09:00:46;;;;;;;3.53;3.33;;;;;;;25.27;28.77;94454.84;5007476;28;20272;-64
2023/04/16 09:03:13;;;;;;;5.45;2.75;;;;;;;24.64;29.72;94455.09;5006151;28;20305;-63
2023/04/16 09:05:42;;;;;;;6.72;3.15;;;;;;;23.88;30.36;94450.34;5007665;28;20280;-64
2023/04/16 09:08:09;;;;;;;6.22;3.22;;;;;;;23.12;31.55;94441.16;5006458;28;20377;-64
2023/04/16 09:10:35;;;;;;;6.00;3.13;;;;;;;22.22;33.50;94442.41;5007625;28;20227;-67
2023/04/16 09:13:02;;;;;;;3.42;3.13;;;;;;;21.69;34.38;94439.31;5006859;28;20600;-63
2023/04/16 09:15:29;;;;;;;4.70;3.08;;;;;;;21.35;34.75;94442.22;5007847;28;20212;-66
2023/04/16 09:17:56;;;;;;;4.28;2.95;;;;;;;21.26;35.11;94452.53;5011535;28;20203;-66
2023/04/16 09:20:23;;;;;;;2.97;2.67;;;;;;;21.05;35.78;94455.94;5010815;28;20354;-62
2023/04/16 09:22:51;;;;;;;3.92;3.00;;;;;;;21.22;35.48;94451.16;5010261;28;20310;-64
2023/04/16 09:25:20;;;;;;;6.55;2.97;;;;;;;21.69;34.36;94449.66;5008901;28;20235;-63
2023/04/16 09:27:49;;;;;;;2.92;2.72;;;;;;;22.03;33.70;94445.78;5009949;28;20576;-65
2023/04/16 09:30:21;;;;;;;5.57;3.03;;;;;;;22.40;33.62;94448.50;5009286;28;20410;-65
2023/04/16 09:32:48;;;;;;;11.43;4.43;;;;;;;22.52;33.49;94448.38;5010350;28;20665;-61
2023/04/16 09:35:16;;;;;;;3.80;2.42;;;;;;;22.15;33.99;94449.06;5008764;28;20211;-62
2023/04/16 09:37:43;;;;;;;6.22;3.90;;;;;;;22.06;34.42;94447.28;5009391;28;20645;-64
2023/04/16 09:40:12;;;;;;;3.65;3.10;;;;;;;22.10;34.64;94443.47;5009878;28;22259;-64
2023/04/16 09:42:38;;;;;;;3.50;3.20;;;;;;;21.77;35.11;94441.25;5011085;28;20297;-64
2023/04/16 09:45:06;;;;;;;4.20;3.60;;;;;;;21.78;35.33;94437.72;5010136;28;20286;-61
2023/04/16 09:47:40;;;;;;;7.88;3.25;;;;;;;21.47;34.81;94435.19;5010218;28;20211;-60
2023/04/16 09:50:08;;;;;;;8.88;4.30;;;;;;;21.48;35.41;94439.41;5007841;28;20239;-64
2023/04/16 09:52:37;;;;;;;5.45;3.60;;;;;;;21.69;34.87;94429.78;5009667;28;20206;-65
2023/04/16 09:55:04;;;;;;;6.88;5.68;;;;;;;22.27;34.86;94427.25;5008809;28;20214;-64
2023/04/16 09:57:32;;;;;;;11.60;7.97;;;;;;;22.79;33.30;94432.09;5009972;28;22174;-65
2023/04/16 10:00:02;;;;;;;12.13;5.72;;;;;;;23.03;33.48;94422.06;5010474;28;20227;-63
2023/04/16 10:02:30;;;;;;;7.05;4.85;;;;;;;23.13;32.65;94415.09;5009547;28;20676;-65
2023/04/16 10:04:57;;;;;;;4.38;3.97;;;;;;;23.07;32.47;94415.66;5008651;28;20203;-60
2023/04/16 10:07:28;;;;;;;8.82;3.33;;;;;;;22.94;32.67;94417.75;5009393;28;20211;-61
2023/04/16 10:09:55;;;;;;;5.65;4.70;;;;;;;22.85;32.88;94419.41;5010058;28;20290;-64
2023/04/16 10:12:22;;;;;;;8.57;7.32;;;;;;;22.92;32.01;94404.13;5010782;28;20215;-63
2023/04/16 10:14:50;;;;;;;8.07;6.47;;;;;;;22.99;31.83;94406.00;5009442;28;20758;-64
2023/04/16 10:17:17;;;;;;;7.82;5.75;;;;;;;22.96;32.41;94411.47;5009762;28;20243;-64
2023/04/16 10:19:45;;;;;;;7.90;3.15;;;;;;;22.97;32.21;94404.53;5010085;28;20668;-65
2023/04/16 10:22:12;;;;;;;3.78;3.47;;;;;;;22.99;32.50;94405.19;5009978;28;21038;-61
2023/04/16 10:24:41;;;;;;;3.85;2.60;;;;;;;23.08;32.22;94407.72;5009874;28;20211;-64
2023/04/16 10:27:07;;;;;;;4.70;3.35;;;;;;;22.91;31.94;94390.34;5008643;28;20295;-59
2023/04/16 10:29:35;;;;;;;3.75;3.45;;;;;;;22.88;31.96;94401.00;5009645;28;20243;-63
2023/04/16 10:32:03;;;;;;;5.28;3.58;;;;;;;22.91;32.53;94392.13;5009501;28;20212;-61
2023/04/16 10:34:31;;;;;;;5.22;3.60;;;;;;;22.98;32.36;94388.03;5009118;28;20299;-63
2023/04/16 10:36:58;;;;;;;5.55;4.90;;;;;;;23.17;32.36;94387.09;5009012;28;21684;-63
2023/04/16 10:39:28;;;;;;;8.88;4.10;;;;;;;23.30;32.16;94392.75;5009333;28;20755;-66
2023/04/16 10:42:07;;;;;;;6.97;2.95;;;;;;;23.24;31.78;94383.81;5009884;28;20211;-65
2023/04/16 10:44:34;;;;;;;2.95;2.35;;;;;;;23.28;31.97;94386.91;5009450;28;20703;-64
2023/04/16 10:47:03;;;;;;;4.88;2.60;;;;;;;23.29;32.58;94386.75;5009240;28;20637;-60
2023/04/16 10:49:30;;;;;;;4.82;3.42;;;;;;;23.26;32.09;94394.81;5009757;28;20349;-63
2023/04/16 10:51:58;;;;;;;4.88;3.00;;;;;;;23.19;32.02;94387.78;5009482;28;20207;-64
2023/04/16 10:54:26;;;;;;;4.43;3.08;;;;;;;22.91;32.77;94376.59;5008755;28;20254;-64
2023/04/16 10:56:53;;;;;;;3.35;2.78;;;;;;;22.79;32.99;94388.88;5008539;28;20602;-64
2023/04/16 10:59:22;;;;;;;3.70;2.70;;;;;;;22.70;33.71;94390.53;5009980;28;20389;-65
2023/04/16 11:01:51;;;;;;;3.67;2.85;;;;;;;22.52;33.44;94381.03;5009669;28;20243;-65
2023/04/16 11:04:30;;;;;;;4.35;2.90;;;;;;;22.45;33.42;94374.78;5008952;28;20390;-68
2023/04/16 11:07:16;;;;;;;4.35;3.92;;;;;;;22.34;33.95;94371.38;5008211;28;21648;-64
2023/04/16 11:09:54;;;;;;;6.85;2.50;;;;;;;22.27;33.83;94370.31;5007548;28;20744;-59
2023/04/16 11:12:23;;;;;;;4.45;3.47;;;;;;;22.34;34.21;94367.97;5009354;28;20211;-62
2023/04/16 11:14:50;;;;;;;5.15;3.03;;;;;;;22.56;33.93;94364.25;5008814;28;20767;-64
2023/04/16 11:17:18;;;;;;;3.58;2.90;;;;;;;22.72;32.94;94369.69;5008703;28;20303;-64
2023/04/16 11:19:46;;;;;;;8.85;2.63;;;;;;;22.68;33.19;94360.53;5008694;28;20826;-61
2023/04/16 11:22:16;;;;;;;5.90;2.97;;;;;;;22.88;33.15;94354.38;5007752;28;20290;-62
2023/04/16 11:24:43;;;;;;;7.22;3.60;;;;;;;23.11;32.99;94353.97;5008325;28;20207;-65
2023/04/16 11:27:12;;;;;;;7.07;3.53;;;;;;;23.26;32.66;94349.97;5008775;28;20304;-61
2023/04/16 11:29:39;;;;;;;4.57;2.85;;;;;;;23.05;31.86;94343.22;5008509;28;20254;-64
2023/04/16 11:32:06;;;;;;;4.18;3.30;;;;;;;22.59;32.56;94338.88;5008606;28;20203;-62